createdAt,value
2022-10-14T00:01:33.034Z,99054.53
2022-10-14T00:04:02.350Z,99056.72
2022-10-14T00:06:34.280Z,99059.41
2022-10-14T00:09:06.801Z,99056.19
2022-10-14T00:11:39.059Z,99050.94
2022-10-14T00:14:11.653Z,99053.28
2022-10-14T00:16:44.383Z,99045.81
2022-10-14T00:19:15.722Z,99050.81
2022-10-14T00:21:46.959Z,99041.97
2022-10-14T00:24:18.919Z,99044.63
2022-10-14T00:26:49.084Z,99043.81
2022-10-14T00:29:19.831Z,99046.94
2022-10-14T00:31:51.780Z,99049.53
2022-10-14T00:34:20.931Z,99048.00
2022-10-14T00:36:49.673Z,99051.63
2022-10-14T00:39:20.778Z,99048.50
2022-10-14T00:41:50.782Z,99052.00
2022-10-14T00:47:01.919Z,99048.06
2022-10-14T00:49:35.278Z,99049.94
2022-10-14T00:52:10.168Z,99052.84
2022-10-14T00:54:45.280Z,99044.81
2022-10-14T00:57:15.205Z,99046.88
2022-10-14T00:59:43.907Z,99052.69
2022-10-14T01:02:13.996Z,99041.78
2022-10-14T01:04:46.680Z,99041.97
2022-10-14T01:07:33.049Z,99042.78
2022-10-14T01:10:15.018Z,99044.22
2022-10-14T01:13:06.151Z,99046.88
2022-10-14T01:15:45.624Z,99048.06
2022-10-14T01:18:38.257Z,99043.91
2022-10-14T01:21:19.277Z,99047.50
2022-10-14T01:24:41.784Z,99039.38
2022-10-14T01:27:55.259Z,99038.44
2022-10-14T01:30:27.835Z,99042.72
2022-10-14T01:33:12.847Z,99039.25
2022-10-14T01:36:01.186Z,99037.38
2022-10-14T01:38:35.956Z,99040.53
2022-10-14T01:41:15.323Z,99038.69
2022-10-14T01:43:49.699Z,99034.94
2022-10-14T01:46:24.016Z,99037.88
2022-10-14T01:48:59.404Z,99036.00
2022-10-14T01:51:35.902Z,99039.00
2022-10-14T01:54:11.263Z,99033.78
2022-10-14T01:56:42.739Z,99028.16
2022-10-14T01:59:16.331Z,99022.00
2022-10-14T02:01:46.383Z,99027.34
2022-10-14T02:04:19.646Z,99015.03
2022-10-14T02:06:58.956Z,99017.47
2022-10-14T02:09:37.425Z,99019.94
2022-10-14T02:12:23.139Z,99013.28
2022-10-14T02:15:11.154Z,99014.66
2022-10-14T02:17:55.184Z,99014.91
2022-10-14T02:20:33.289Z,99005.00
2022-10-14T02:23:14.760Z,99009.53
2022-10-14T02:25:47.986Z,99002.91
2022-10-14T02:28:21.930Z,98994.28
2022-10-14T02:30:57.082Z,99004.75
2022-10-14T02:33:37.816Z,99003.94
2022-10-14T02:36:13.568Z,99006.06
2022-10-14T02:38:44.604Z,99000.69
2022-10-14T02:41:20.361Z,98999.63
2022-10-14T02:43:53.006Z,98995.34
2022-10-14T02:46:23.945Z,99004.19
2022-10-14T02:48:53.986Z,98999.63
2022-10-14T02:51:22.624Z,98997.31
2022-10-14T02:53:51.353Z,98995.44
2022-10-14T02:56:20.651Z,98995.44
2022-10-14T02:58:49.398Z,98994.97
2022-10-14T03:01:18.448Z,98994.50
2022-10-14T03:03:47.215Z,98986.22
2022-10-14T03:06:17.636Z,98995.69
2022-10-14T03:08:48.195Z,98993.22
2022-10-14T03:11:17.132Z,98990.31
2022-10-14T03:13:46.352Z,98984.97
2022-10-14T03:16:15.107Z,98980.16
2022-10-14T03:18:46.728Z,98987.41
2022-10-14T03:21:24.771Z,98991.13
2022-10-14T03:23:54.184Z,98983.31
2022-10-14T03:26:31.289Z,98986.59
2022-10-14T03:29:00.006Z,98980.41
2022-10-14T03:31:43.260Z,98983.09
2022-10-14T03:34:31.780Z,98987.16
2022-10-14T03:37:08.924Z,98983.41
2022-10-14T03:39:45.997Z,98976.69
2022-10-14T03:42:16.443Z,98980.41
2022-10-14T03:44:49.181Z,98982.84
2022-10-14T03:47:28.230Z,98977.50
2022-10-14T03:49:56.922Z,98974.81
2022-10-14T03:52:33.384Z,98975.88
2022-10-14T03:55:08.849Z,98972.94
2022-10-14T03:57:37.533Z,98972.13
2022-10-14T04:00:09.758Z,98971.66
2022-10-14T04:05:22.067Z,98964.66
2022-10-14T04:07:52.134Z,98968.41
2022-10-14T04:10:20.040Z,98960.13
2022-10-14T04:12:54.888Z,98959.06
2022-10-14T04:15:32.204Z,98952.44
2022-10-14T04:18:15.902Z,98953.25
2022-10-14T04:20:47.338Z,98955.13
2022-10-14T04:23:18.081Z,98951.88
2022-10-14T04:25:48.987Z,98946.50
2022-10-14T04:28:18.339Z,98947.31
2022-10-14T04:30:57.905Z,98956.97
2022-10-14T04:33:32.551Z,98960.47
2022-10-14T04:36:11.286Z,98953.25
2022-10-14T04:38:42.638Z,98953.50
2022-10-14T04:41:12.883Z,98956.16
2022-10-14T04:43:47.900Z,98950.81
2022-10-14T04:46:27.207Z,98948.69
2022-10-14T04:48:56.487Z,98947.88
2022-10-14T04:51:32.626Z,98947.06
2022-10-14T04:54:18.516Z,98941.47
2022-10-14T04:56:52.179Z,98947.66
2022-10-14T04:59:21.412Z,98940.19
2022-10-14T05:02:08.314Z,98934.84
2022-10-14T05:04:45.248Z,98939.34
2022-10-14T05:07:16.676Z,98936.91
2022-10-14T05:09:50.373Z,98939.84
2022-10-14T05:12:29.476Z,98939.84
2022-10-14T05:15:01.806Z,98944.41
2022-10-14T05:17:37.957Z,98943.34
2022-10-14T05:20:09.137Z,98941.72
2022-10-14T05:22:42.652Z,98936.34
2022-10-14T05:25:11.778Z,98939.84
2022-10-14T05:27:41.141Z,98940.66
2022-10-14T05:30:12.087Z,98933.69
2022-10-14T05:32:46.579Z,98929.94
2022-10-14T05:35:15.508Z,98935.31
2022-10-14T05:37:45.574Z,98935.31
2022-10-14T05:40:14.330Z,98938.53
2022-10-14T05:42:42.930Z,98933.78
2022-10-14T05:45:12.502Z,98928.19
2022-10-14T05:47:48.260Z,98931.41
2022-10-14T05:50:20.214Z,98937.13
2022-10-14T05:52:51.286Z,98931.78
2022-10-14T05:55:25.879Z,98929.66
2022-10-14T05:57:59.568Z,98936.63
2022-10-14T06:00:34.846Z,98936.63
2022-10-14T06:03:11.469Z,98940.13
2022-10-14T06:05:41.069Z,98941.53
2022-10-14T06:08:11.814Z,98935.69
2022-10-14T06:10:40.723Z,98937.34
2022-10-14T06:13:09.387Z,98941.03
2022-10-14T06:15:40.475Z,98945.13
2022-10-14T06:18:09.154Z,98938.97
2022-10-14T06:20:37.939Z,98937.41
2022-10-14T06:23:06.901Z,98935.56
2022-10-14T06:25:38.070Z,98935.06
2022-10-14T06:28:07.299Z,98942.41
2022-10-14T06:30:36.100Z,98936.56
2022-10-14T06:33:04.805Z,98938.16
2022-10-14T06:35:33.531Z,98940.13
2022-10-14T06:38:02.187Z,98935.38
2022-10-14T06:40:31.006Z,98937.56
2022-10-14T06:43:01.338Z,98940.59
2022-10-14T06:45:30.210Z,98943.81
2022-10-14T06:47:59.432Z,98937.97
2022-10-14T06:50:28.131Z,98938.06
2022-10-14T06:53:10.821Z,98941.09
2022-10-14T06:55:39.429Z,98938.72
2022-10-14T06:58:09.415Z,98942.00
2022-10-14T07:00:38.321Z,98941.50
2022-10-14T07:03:07.100Z,98949.06
2022-10-14T07:05:36.862Z,98946.94
2022-10-14T07:08:06.178Z,98950.78
2022-10-14T07:10:35.968Z,98951.94
2022-10-14T07:13:04.642Z,98948.53
2022-10-14T07:15:36.222Z,98942.44
2022-10-14T07:18:06.633Z,98943.59
2022-10-14T07:20:36.011Z,98947.97
2022-10-14T07:23:04.637Z,98951.78
2022-10-14T07:25:34.080Z,98947.56
2022-10-14T07:28:02.698Z,98946.56
2022-10-14T07:30:31.568Z,98950.97
2022-10-14T07:33:02.271Z,98944.88
2022-10-14T07:35:30.987Z,98948.66
2022-10-14T07:38:01.157Z,98949.00
2022-10-14T07:40:30.106Z,98944.78
2022-10-14T07:42:58.671Z,98949.88
2022-10-14T07:45:27.267Z,98957.44
2022-10-14T07:47:55.923Z,98958.84
2022-10-14T07:50:25.984Z,98963.47
2022-10-14T07:52:58.891Z,98959.22
2022-10-14T07:55:29.560Z,98953.91
2022-10-14T07:57:58.152Z,98958.03
2022-10-14T08:00:26.844Z,98958.03
2022-10-14T08:02:55.972Z,98956.00
2022-10-14T08:05:37.773Z,98956.56
2022-10-14T08:08:07.467Z,98964.69
2022-10-14T08:10:36.982Z,98951.81
2022-10-14T08:13:06.360Z,98955.63
2022-10-14T08:15:38.812Z,98957.31
2022-10-14T08:18:08.390Z,98959.50
2022-10-14T08:20:38.775Z,98957.13
2022-10-14T08:23:07.388Z,98950.44
2022-10-14T08:25:37.726Z,98955.06
2022-10-14T08:28:06.540Z,98958.56
2022-10-14T08:30:35.214Z,98955.13
2022-10-14T08:33:03.910Z,98954.38
2022-10-14T08:35:32.518Z,98954.94
2022-10-14T08:38:03.480Z,98957.13
2022-10-14T08:40:49.114Z,98952.31
2022-10-14T08:43:31.286Z,98947.56
2022-10-14T08:46:12.549Z,98947.88
2022-10-14T08:48:41.864Z,98936.34
2022-10-14T08:51:15.505Z,98945.53
2022-10-14T08:53:51.545Z,98942.34
2022-10-14T08:56:21.849Z,98950.44
2022-10-14T08:58:54.499Z,98941.38
2022-10-14T09:01:29.038Z,98942.50
2022-10-14T09:04:01.911Z,98943.91
2022-10-14T09:06:34.624Z,98941.56
2022-10-14T09:09:15.479Z,98938.94
2022-10-14T09:11:49.358Z,98941.13
2022-10-14T09:14:22.846Z,98934.41
2022-10-14T09:16:58.012Z,98937.97
2022-10-14T09:19:33.381Z,98940.09
2022-10-14T09:22:03.423Z,98939.56
2022-10-14T09:24:36.681Z,98935.84
2022-10-14T09:27:08.594Z,98935.84
2022-10-14T09:29:47.972Z,98935.56
2022-10-14T09:32:28.370Z,98935.31
2022-10-14T09:34:58.696Z,98928.34
2022-10-14T09:37:30.909Z,98930.00
2022-10-14T09:40:11.455Z,98933.72
2022-10-14T09:42:49.876Z,98931.34
2022-10-14T09:45:22.652Z,98934.94
2022-10-14T09:47:56.710Z,98932.06
2022-10-14T09:50:32.049Z,98923.72
2022-10-14T09:53:09.248Z,98926.03
2022-10-14T09:55:49.397Z,98930.91
2022-10-14T09:58:26.656Z,98928.78
2022-10-14T10:00:59.299Z,98924.50
2022-10-14T10:03:32.613Z,98916.78
2022-10-14T10:06:05.653Z,98907.41
2022-10-14T10:08:35.311Z,98908.22
2022-10-14T10:11:10.531Z,98906.38
2022-10-14T10:13:46.232Z,98903.66
2022-10-14T10:16:26.882Z,98895.00
2022-10-14T10:18:57.426Z,98895.50
2022-10-14T10:21:29.861Z,98889.53
2022-10-14T10:24:01.485Z,98883.31
2022-10-14T10:26:33.903Z,98886.59
2022-10-14T10:29:06.132Z,98887.91
2022-10-14T10:32:12.215Z,98887.97
2022-10-14T10:35:09.131Z,98893.38
2022-10-14T10:37:50.460Z,98889.06
2022-10-14T10:40:53.141Z,98885.53
2022-10-14T10:43:53.617Z,98871.19
2022-10-14T10:47:00.868Z,98877.69
2022-10-14T10:50:08.707Z,98878.56
2022-10-14T10:53:01.338Z,98884.22
2022-10-14T10:55:40.759Z,98883.97
2022-10-14T10:58:26.345Z,98884.78
2022-10-14T11:01:08.169Z,98879.63
2022-10-14T11:03:57.830Z,98876.69
2022-10-14T11:06:55.951Z,98874.50
2022-10-14T11:09:58.160Z,98876.13
2022-10-14T11:12:35.890Z,98875.56
2022-10-14T11:15:23.695Z,98868.00
2022-10-14T11:18:01.526Z,98877.72
2022-10-14T11:20:44.735Z,98874.50
2022-10-14T11:23:41.418Z,98864.78
2022-10-14T11:26:29.915Z,98859.13
2022-10-14T11:29:18.938Z,98858.31
2022-10-14T11:32:04.116Z,98850.72
2022-10-14T11:34:49.870Z,98854.53
2022-10-14T11:37:35.955Z,98844.25
2022-10-14T11:40:21.269Z,98842.63
2022-10-14T11:43:10.362Z,98834.53
2022-10-14T11:45:50.058Z,98832.06
2022-10-14T11:48:31.259Z,98827.50
2022-10-14T11:51:12.683Z,98828.31
2022-10-14T11:54:04.926Z,98826.44
2022-10-14T11:56:43.521Z,98823.19
2022-10-14T11:59:55.928Z,98830.75
2022-10-14T12:02:42.055Z,98826.44
2022-10-14T12:05:22.762Z,98823.72
2022-10-14T12:08:10.910Z,98824.81
2022-10-14T12:12:15.810Z,98817.53
2022-10-14T12:14:50.226Z,98818.06
2022-10-14T12:17:27.349Z,98815.09
2022-10-14T12:19:57.071Z,98814.00
2022-10-14T12:22:30.570Z,98807.53
2022-10-14T12:25:07.476Z,98798.34
2022-10-14T12:27:37.957Z,98801.03
2022-10-14T12:30:37.083Z,98799.94
2022-10-14T12:33:10.653Z,98799.94
2022-10-14T12:36:00.975Z,98799.94
2022-10-14T12:38:34.626Z,98794.00
2022-10-14T12:41:43.618Z,98794.50
2022-10-14T12:44:18.768Z,98792.56
2022-10-14T12:46:53.219Z,98793.34
2022-10-14T12:49:31.412Z,98785.50
2022-10-14T12:52:04.613Z,98785.00
2022-10-14T12:54:35.739Z,98788.50
2022-10-14T12:57:20.729Z,98794.44
2022-10-14T12:59:53.787Z,98786.34
2022-10-14T13:02:35.570Z,98787.44
2022-10-14T13:05:10.332Z,98782.03
2022-10-14T13:07:46.330Z,98774.47
2022-10-14T13:10:50.696Z,98773.38
2022-10-14T13:14:21.108Z,98771.69
2022-10-14T13:17:01.347Z,98765.69
2022-10-14T13:19:46.738Z,98765.69
2022-10-14T13:22:43.719Z,98763.47
2022-10-14T13:25:21.867Z,98764.00
2022-10-14T13:28:17.056Z,98758.53
2022-10-14T13:31:04.985Z,98756.41
2022-10-14T13:33:43.689Z,98755.03
2022-10-14T13:36:23.774Z,98757.50
2022-10-14T13:38:59.815Z,98756.41
2022-10-14T13:41:31.575Z,98748.28
2022-10-14T13:44:03.502Z,98746.09
2022-10-14T13:46:42.503Z,98747.47
2022-10-14T13:49:21.006Z,98743.16
2022-10-14T13:51:54.549Z,98738.00
2022-10-14T13:54:25.999Z,98735.25
2022-10-14T13:57:34.735Z,98722.25
2022-10-14T14:02:49.044Z,98728.25
2022-10-14T14:05:27.725Z,98730.94
2022-10-14T14:11:17.299Z,98727.47
2022-10-14T14:14:01.063Z,98732.59
2022-10-14T14:16:39.531Z,98719.66
2022-10-14T14:19:20.937Z,98724.00
2022-10-14T14:21:51.489Z,98718.69
2022-10-14T14:24:25.402Z,98721.94
2022-10-14T14:26:56.921Z,98717.63
2022-10-14T14:29:30.262Z,98717.63
2022-10-14T14:32:09.026Z,98711.44
2022-10-14T14:34:44.065Z,98711.72
2022-10-14T14:37:43.934Z,98706.34
2022-10-14T14:40:20.791Z,98702.03
2022-10-14T14:42:53.960Z,98693.44
2022-10-14T14:45:26.671Z,98695.63
2022-10-14T14:47:59.424Z,98695.09
2022-10-14T14:50:38.340Z,98689.19
2022-10-14T14:53:16.083Z,98685.44
2022-10-14T14:55:58.770Z,98691.69
2022-10-14T14:58:35.509Z,98679.00
2022-10-14T15:01:08.617Z,98689.28
2022-10-14T15:04:12.258Z,98679.81
2022-10-14T15:06:51.888Z,98687.66
2022-10-14T15:09:27.765Z,98685.50
2022-10-14T15:11:59.027Z,98690.91
2022-10-14T15:14:35.444Z,98680.09
2022-10-14T15:17:06.847Z,98676.88
2022-10-14T15:19:38.790Z,98681.72
2022-10-14T15:22:29.646Z,98675.78
2022-10-14T15:25:03.958Z,98683.91
2022-10-14T15:27:49.423Z,98679.03
2022-10-14T15:30:27.332Z,98676.88
2022-10-14T15:33:00.154Z,98680.66
2022-10-14T15:35:30.760Z,98685.53
2022-10-14T15:38:00.890Z,98686.88
2022-10-14T15:40:32.905Z,98682.28
2022-10-14T15:43:01.597Z,98688.78
2022-10-14T15:45:30.414Z,98689.88
2022-10-14T15:48:05.154Z,98685.84
2022-10-14T15:50:36.228Z,98698.25
2022-10-14T15:53:06.323Z,98686.66
2022-10-14T15:55:35.977Z,98685.31
2022-10-14T15:58:09.365Z,98685.03
2022-10-14T16:00:38.352Z,98688.31
2022-10-14T16:03:07.786Z,98682.34
2022-10-14T16:05:38.733Z,98678.59
2022-10-14T16:08:15.314Z,98682.91
2022-10-14T16:10:47.283Z,98682.09
2022-10-14T16:13:17.107Z,98669.16
2022-10-14T16:15:50.425Z,98678.59
2022-10-14T16:18:22.384Z,98670.78
2022-10-14T16:20:53.597Z,98667.81
2022-10-14T16:23:29.650Z,98657.56
2022-10-14T16:26:02.013Z,98661.06
2022-10-14T16:28:31.134Z,98658.38
2022-10-14T16:31:01.193Z,98657.59
2022-10-14T16:33:30.154Z,98653.00
2022-10-14T16:36:00.211Z,98650.03
2022-10-14T16:38:30.792Z,98643.56
2022-10-14T16:41:02.316Z,98643.56
2022-10-14T16:43:31.602Z,98637.09
2022-10-14T16:46:03.654Z,98637.03
2022-10-14T16:48:34.199Z,98634.91
2022-10-14T16:51:03.379Z,98637.56
2022-10-14T16:53:45.103Z,98645.34
2022-10-14T16:56:35.017Z,98644.56
2022-10-14T16:59:05.154Z,98650.75
2022-10-14T17:01:33.974Z,98642.41
2022-10-14T17:04:03.965Z,98647.78
2022-10-14T17:06:33.542Z,98653.19
2022-10-14T17:09:04.437Z,98644.53
2022-10-14T17:11:33.767Z,98652.63
2022-10-14T17:14:03.924Z,98644.00
2022-10-14T17:16:33.381Z,98645.06
2022-10-14T17:19:02.884Z,98647.75
2022-10-14T17:21:31.952Z,98653.94
2022-10-14T17:24:03.520Z,98656.38
2022-10-14T17:26:35.056Z,98652.59
2022-10-14T17:29:04.653Z,98652.59
2022-10-14T17:31:34.404Z,98657.97
2022-10-14T17:34:05.317Z,98663.56
2022-10-14T17:36:34.647Z,98661.44
2022-10-14T17:39:06.345Z,98656.06
2022-10-14T17:41:36.137Z,98661.72
2022-10-14T17:44:06.744Z,98668.72
2022-10-14T17:46:37.630Z,98660.09
2022-10-14T17:49:10.703Z,98666.00
2022-10-14T17:51:40.875Z,98660.06
2022-10-14T17:54:13.392Z,98652.00
2022-10-14T17:56:44.938Z,98653.84
2022-10-14T17:59:14.483Z,98642.84
2022-10-14T18:02:01.582Z,98648.72
2022-10-14T18:04:32.673Z,98648.16
2022-10-14T18:07:02.386Z,98652.72
2022-10-14T18:09:34.169Z,98654.59
2022-10-14T18:12:08.908Z,98658.88
2022-10-14T18:14:41.142Z,98656.44
2022-10-14T18:17:12.474Z,98649.16
2022-10-14T18:19:45.031Z,98653.72
2022-10-14T18:22:17.917Z,98647.53
2022-10-14T18:24:49.137Z,98642.69
2022-10-14T18:27:18.196Z,98634.88
2022-10-14T18:29:47.420Z,98631.88
2022-10-14T18:37:22.051Z,98619.47
2022-10-14T18:39:49.495Z,98620.53
2022-10-14T18:42:20.079Z,98619.97
2022-10-14T18:44:49.912Z,98619.09
2022-10-14T18:47:19.374Z,98615.06
2022-10-14T18:49:49.796Z,98621.53
2022-10-14T18:52:23.031Z,98618.28
2022-10-14T18:54:53.685Z,98618.00
2022-10-14T18:57:24.142Z,98617.97
2022-10-14T18:59:53.584Z,98622.53
2022-10-14T19:02:22.936Z,98614.72
2022-10-14T19:04:52.782Z,98613.91
2022-10-14T19:07:21.430Z,98621.44
2022-10-14T19:09:51.901Z,98612.88
2022-10-14T19:12:42.759Z,98605.34
2022-10-14T19:15:12.635Z,98604.56
2022-10-14T19:17:42.930Z,98602.63
2022-10-14T19:20:12.115Z,98604.25
2022-10-14T19:22:44.889Z,98608.81
2022-10-14T19:25:13.597Z,98598.88
2022-10-14T19:27:43.980Z,98594.59
2022-10-14T19:30:13.577Z,98601.59
2022-10-14T19:32:42.215Z,98596.75
2022-10-14T19:35:11.055Z,98581.69
2022-10-14T19:37:39.678Z,98574.44
2022-10-14T19:40:10.136Z,98565.84
2022-10-14T19:42:38.851Z,98563.13
2022-10-14T19:45:10.190Z,98559.66
2022-10-14T19:47:39.223Z,98554.00
2022-10-14T19:50:09.683Z,98546.75
2022-10-14T19:52:38.263Z,98539.47
2022-10-14T19:55:08.604Z,98534.09
2022-10-14T19:57:37.243Z,98534.94
2022-10-14T20:00:09.059Z,98529.00
2022-10-14T20:05:08.395Z,98523.88
2022-10-14T20:07:37.049Z,98530.06
2022-10-14T20:10:07.009Z,98528.16
2022-10-14T20:12:35.685Z,98527.38
2022-10-14T20:15:04.699Z,98517.97
2022-10-14T20:17:35.126Z,98516.66
2022-10-14T20:20:03.789Z,98504.53
2022-10-14T20:22:33.818Z,98508.84
2022-10-14T20:25:02.395Z,98503.19
2022-10-14T20:27:31.052Z,98496.72
2022-10-14T20:29:59.795Z,98495.41
2022-10-14T20:32:28.408Z,98495.94
2022-10-14T20:35:01.809Z,98493.81
2022-10-14T20:37:33.028Z,98490.31
2022-10-14T20:40:02.066Z,98503.25
2022-10-14T20:42:30.692Z,98497.88
2022-10-14T20:44:59.267Z,98495.19
2022-10-14T20:47:27.862Z,98495.44
2022-10-14T20:49:57.967Z,98496.00
2022-10-14T20:52:26.704Z,98494.13
2022-10-14T20:54:55.339Z,98495.72
2022-10-14T20:57:25.000Z,98491.16
2022-10-14T20:59:53.857Z,98479.59
2022-10-14T21:02:23.335Z,98483.63
2022-10-14T21:04:54.110Z,98486.59
2022-10-14T21:07:24.705Z,98489.53
2022-10-14T21:09:53.648Z,98479.06
2022-10-14T21:12:22.636Z,98478.00
2022-10-14T21:14:51.615Z,98461.59
2022-10-14T21:17:20.411Z,98463.19
2022-10-14T21:19:50.165Z,98467.25
2022-10-14T21:22:18.799Z,98460.81
2022-10-14T21:24:48.803Z,98458.13
2022-10-14T21:27:17.524Z,98448.97
2022-10-14T21:29:46.236Z,98444.13
2022-10-14T21:32:14.948Z,98447.34
2022-10-14T21:34:43.537Z,98445.47
2022-10-14T21:37:12.197Z,98438.22
2022-10-14T21:39:40.900Z,98425.84
2022-10-14T21:42:11.161Z,98432.03
2022-10-14T21:44:39.832Z,98428.03
2022-10-14T21:47:08.437Z,98426.41
2022-10-14T21:49:37.168Z,98426.41
2022-10-14T21:52:06.185Z,98419.94
2022-10-14T21:54:34.850Z,98418.34
2022-10-14T21:57:03.473Z,98409.97
2022-10-14T21:59:33.460Z,98405.41
2022-10-14T22:02:02.158Z,98412.44
2022-10-14T22:04:34.510Z,98404.88
2022-10-14T22:07:06.686Z,98400.84
2022-10-14T22:09:35.302Z,98407.84
2022-10-14T22:12:04.935Z,98409.72
2022-10-14T22:14:34.981Z,98391.41
2022-10-14T22:17:03.687Z,98389.81
2022-10-14T22:19:32.570Z,98392.78
2022-10-14T22:22:03.323Z,98390.09
2022-10-14T22:24:32.053Z,98382.25
2022-10-14T22:27:00.704Z,98373.66
2022-10-14T22:29:29.469Z,98377.97
2022-10-14T22:31:59.494Z,98375.00
2022-10-14T22:34:28.034Z,98372.06
2022-10-14T22:36:56.739Z,98369.38
2022-10-14T22:39:27.159Z,98377.69
2022-10-14T22:41:55.765Z,98373.09
2022-10-14T22:44:24.566Z,98364.50
2022-10-14T22:46:54.621Z,98355.91
2022-10-14T22:49:24.740Z,98365.06
2022-10-14T22:51:56.613Z,98363.97
2022-10-14T22:54:25.685Z,98365.88
2022-10-14T22:56:54.300Z,98365.06
2022-10-14T22:59:22.961Z,98367.75
2022-10-14T23:01:51.766Z,98361.81
2022-10-14T23:04:20.868Z,98356.44
2022-10-14T23:06:51.679Z,98361.81
2022-10-14T23:09:20.321Z,98356.44
2022-10-14T23:11:49.014Z,98357.50
2022-10-14T23:14:17.700Z,98354.81
2022-10-14T23:16:46.309Z,98348.91
2022-10-14T23:19:14.932Z,98351.84
2022-10-14T23:21:44.624Z,98354.03
2022-10-14T23:24:14.734Z,98352.13
2022-10-14T23:26:43.383Z,98344.06
2022-10-14T23:29:13.046Z,98343.25
2022-10-14T23:31:43.490Z,98344.06
2022-10-14T23:34:15.157Z,98334.38
2022-10-14T23:36:44.277Z,98335.47
2022-10-14T23:39:14.480Z,98335.47
2022-10-14T23:41:43.439Z,98328.47
2022-10-14T23:44:13.110Z,98330.06
2022-10-14T23:46:41.829Z,98323.09
2022-10-14T23:49:26.024Z,98324.69
2022-10-14T23:51:55.467Z,98324.13
2022-10-14T23:54:25.728Z,98331.41
2022-10-14T23:56:54.405Z,98327.91
2022-10-14T23:59:23.059Z,98322.25
